Time;durP1;ratioP1;P1;durP2;ratioP2;P2;SDS_P1;SDS_P2;PMS_P1;PMS_P2;Temp;Humidity;BMP_temperature;BMP_pressure;BME280_temperature;BME280_humidity;BME280_pressure;Samples;Min_cycle;Max_cycle;Signal;HPM_P1;HPM_P2
2021/03/12 00:01:21;;;;;;;3.55;1.75;;;8.10;93.00;;;;;;6141116;28;20094;-84
2021/03/12 00:04:23;;;;;;;5.47;1.13;;;8.20;92.80;;;;;;6144090;29;20090;-83
2021/03/12 00:07:25;;;;;;;1.38;0.98;;;8.30;92.10;;;;;;6151612;28;20047;-76
2021/03/12 00:10:27;;;;;;;3.03;1.88;;;8.40;91.60;;;;;;6131823;28;20070;-82
2021/03/12 00:13:29;;;;;;;5.93;2.75;;;8.40;90.90;;;;;;6147133;28;20039;-77
2021/03/12 00:16:30;;;;;;;4.00;1.27;;;8.50;90.60;;;;;;6145330;29;20131;-81
2021/03/12 00:19:33;;;;;;;2.72;1.13;;;8.60;89.70;;;;;;6144948;28;20474;-82
2021/03/12 00:22:34;;;;;;;3.80;1.17;;;8.60;89.70;;;;;;6155605;28;20047;-83
2021/03/12 00:25:38;;;;;;;2.45;1.10;;;8.60;90.20;;;;;;6136094;28;20070;-79
2021/03/12 00:28:40;;;;;;;1.67;0.70;;;8.60;90.70;;;;;;6145731;29;20054;-82
2021/03/12 00:31:41;;;;;;;2.50;0.88;;;8.50;89.10;;;;;;6140744;28;20505;-81
2021/03/12 00:34:43;;;;;;;0.68;0.68;;;8.10;88.90;;;;;;6146541;28;20047;-81
2021/03/12 00:37:45;;;;;;;2.17;0.82;;;7.80;90.60;;;;;;6137734;28;20047;-81
2021/03/12 00:40:48;;;;;;;0.60;0.60;;;7.60;91.50;;;;;;6138430;29;20059;-82
2021/03/12 00:43:50;;;;;;;0.60;0.60;;;7.40;91.50;;;;;;6150040;28;20044;-83
2021/03/12 00:46:51;;;;;;;1.65;0.63;;;7.30;92.00;;;;;;6143235;28;20513;-81
2021/03/12 00:49:53;;;;;;;0.65;0.65;;;7.20;92.30;;;;;;6140742;28;20560;-83
2021/03/12 00:52:55;;;;;;;1.17;0.80;;;7.10;92.60;;;;;;6150688;28;20078;-83
2021/03/12 00:55:56;;;;;;;1.25;0.82;;;7.10;93.20;;;;;;6137731;28;20099;-82
2021/03/12 00:58:57;;;;;;;1.20;0.90;;;7.10;93.60;;;;;;6134864;28;20054;-82
2021/03/12 01:01:59;;;;;;;1.13;0.80;;;7.00;93.90;;;;;;6148693;28;20524;-82
2021/03/12 01:05:01;;;;;;;1.45;0.90;;;7.00;94.60;;;;;;6140737;28;20058;-80
2021/03/12 01:08:03;;;;;;;5.53;1.00;;;6.90;95.20;;;;;;6148424;28;20043;-81
2021/03/12 01:11:04;;;;;;;0.88;0.88;;;6.90;95.80;;;;;;6144381;28;20106;-82
2021/03/12 01:14:06;;;;;;;1.23;0.70;;;6.90;95.90;;;;;;6147134;28;20056;-82
2021/03/12 01:17:07;;;;;;;1.95;0.80;;;6.80;96.20;;;;;;6146018;28;20072;-82
2021/03/12 01:20:12;;;;;;;1.75;1.63;;;6.70;96.20;;;;;;6141441;29;20075;-82
2021/03/12 01:23:14;;;;;;;1.75;1.55;;;6.50;96.40;;;;;;6139881;28;20047;-82
2021/03/12 01:26:15;;;;;;;2.10;1.10;;;6.40;97.20;;;;;;6134052;28;20043;-82
2021/03/12 01:29:17;;;;;;;3.58;2.13;;;6.30;97.80;;;;;;6133329;28;20042;-82
2021/03/12 01:32:18;;;;;;;2.25;1.30;;;6.20;98.10;;;;;;6145862;28;20154;-81
2021/03/12 01:35:20;;;;;;;3.42;1.92;;;6.20;98.00;;;;;;6142724;28;20521;-81
2021/03/12 01:38:22;;;;;;;5.20;1.35;;;6.20;97.40;;;;;;6137889;28;20043;-82
2021/03/12 01:41:23;;;;;;;8.82;1.77;;;6.30;96.10;;;;;;6144586;28;20131;-83
2021/03/12 01:44:24;;;;;;;8.98;2.03;;;6.40;95.40;;;;;;6146409;29;20502;-81
2021/03/12 01:47:26;;;;;;;5.60;2.47;;;6.50;94.70;;;;;;6142101;28;20052;-83
2021/03/12 01:50:29;;;;;;;2.63;1.58;;;;;;;;;;6144799;28;20094;-83
2021/03/12 02:09:19;;;;;;;3.42;1.90;;;7.40;91.90;;;;;;6126162;28;20505;-81
2021/03/12 02:12:28;;;;;;;4.53;1.40;;;7.50;92.20;;;;;;6135128;29;20134;-81
2021/03/12 02:15:33;;;;;;;6.20;1.92;;;7.50;92.10;;;;;;6145789;28;20098;-82
2021/03/12 02:18:38;;;;;;;3.28;1.50;;;7.60;91.90;;;;;;6150223;28;20051;-83
2021/03/12 02:21:43;;;;;;;3.08;2.05;;;7.70;91.40;;;;;;6140423;29;20399;-80
2021/03/12 02:24:52;;;;;;;5.00;2.58;;;7.70;91.60;;;;;;6155425;29;20051;-82
2021/03/12 02:27:55;;;;;;;6.20;2.45;;;7.70;91.20;;;;;;6142205;29;20049;-81
2021/03/12 02:30:58;;;;;;;2.88;1.52;;;7.80;91.40;;;;;;6154771;28;20178;-82
2021/03/12 02:34:00;;;;;;;10.05;2.97;;;7.80;90.90;;;;;;6145128;28;20138;-84
2021/03/12 02:37:03;;;;;;;5.63;2.55;;;7.80;90.70;;;;;;6143262;28;20048;-80
2021/03/12 02:40:07;;;;;;;1.73;1.30;;;7.80;89.80;;;;;;6144646;29;20402;-81
2021/03/12 02:43:10;;;;;;;3.92;1.42;;;7.80;89.00;;;;;;6146751;28;20071;-81
2021/03/12 02:46:12;;;;;;;10.93;2.10;;;7.70;86.20;;;;;;6139692;28;20118;-80
2021/03/12 02:49:14;;;;;;;2.45;1.20;;;7.90;86.50;;;;;;6137973;28;20480;-84
2021/03/12 02:52:17;;;;;;;5.00;2.28;;;7.90;85.60;;;;;;6144144;29;20130;-83
2021/03/12 02:55:21;;;;;;;13.52;3.42;;;7.90;85.80;;;;;;6145569;29;20058;-81
2021/03/12 02:58:23;;;;;;;2.83;1.13;;;7.90;84.90;;;;;;6153974;28;20044;-80
2021/03/12 03:01:27;;;;;;;12.50;3.83;;;7.90;84.30;;;;;;6142021;28;20417;-81
2021/03/12 03:04:29;;;;;;;6.93;2.40;;;7.90;84.90;;;;;;6148761;29;20134;-81
2021/03/12 03:07:30;;;;;;;5.68;1.80;;;7.80;88.30;;;;;;6150722;28;20053;-81
2021/03/12 03:10:32;;;;;;;4.07;1.42;;;7.60;90.70;;;;;;6141925;28;20469;-82
2021/03/12 03:13:35;;;;;;;4.30;1.42;;;7.40;91.50;;;;;;6148000;28;20595;-79
2021/03/12 03:16:38;;;;;;;2.25;1.85;;;7.20;91.60;;;;;;6150720;28;20070;-79
2021/03/12 03:19:45;;;;;;;1.85;1.00;;;6.90;92.20;;;;;;6143852;28;20504;-79
2021/03/12 03:22:47;;;;;;;7.60;1.70;;;6.80;92.40;;;;;;6141408;28;20522;-80
2021/03/12 03:25:48;;;;;;;3.50;1.42;;;6.80;90.80;;;;;;6147583;28;20043;-82
2021/03/12 03:28:51;;;;;;;5.68;2.20;;;6.90;88.90;;;;;;6152653;29;20082;-80
2021/03/12 03:31:52;;;;;;;5.70;1.27;;;7.00;88.90;;;;;;6132035;28;20173;-81
2021/03/12 03:34:53;;;;;;;11.90;6.15;;;7.10;87.20;;;;;;6134141;28;20054;-80
2021/03/12 03:37:55;;;;;;;19.98;3.33;;;7.20;86.80;;;;;;6145031;28;20063;-79
2021/03/12 03:40:57;;;;;;;12.27;2.08;;;7.20;84.10;;;;;;6142987;28;20079;-79
2021/03/12 03:43:59;;;;;;;5.88;1.77;;;7.20;84.20;;;;;;6143723;29;20043;-80
2021/03/12 03:47:04;;;;;;;5.50;1.52;;;7.20;84.30;;;;;;6153567;28;20126;-81
2021/03/12 03:50:09;;;;;;;5.80;2.05;;;7.20;83.30;;;;;;6140453;28;20058;-81
2021/03/12 03:53:11;;;;;;;9.95;4.10;;;7.30;83.50;;;;;;6146011;28;20129;-78
2021/03/12 03:56:16;;;;;;;3.47;1.30;;;7.20;83.30;;;;;;6144246;28;20075;-80
2021/03/12 03:59:19;;;;;;;12.18;2.90;;;7.20;83.30;;;;;;6138433;28;20923;-80
2021/03/12 04:02:21;;;;;;;5.70;2.13;;;7.10;83.20;;;;;;6140023;28;20127;-80
2021/03/12 04:05:23;;;;;;;3.35;2.10;;;6.90;83.80;;;;;;6138504;28;20140;-81
2021/03/12 04:08:24;;;;;;;7.68;3.08;;;6.80;84.70;;;;;;6142498;29;20182;-79
2021/03/12 04:11:26;;;;;;;6.65;1.77;;;6.80;85.60;;;;;;6143171;28;20067;-79
2021/03/12 04:14:29;;;;;;;3.60;1.70;;;6.80;87.50;;;;;;6145683;28;20058;-78
2021/03/12 04:17:31;;;;;;;14.20;2.75;;;6.80;87.90;;;;;;6143765;28;20122;-80
2021/03/12 04:20:33;;;;;;;4.60;2.10;;;6.70;88.00;;;;;;6148218;28;20051;-76
2021/03/12 04:23:35;;;;;;;3.58;1.38;;;6.70;87.40;;;;;;6140362;28;20123;-80
2021/03/12 04:26:38;;;;;;;5.10;1.70;;;6.80;86.30;;;;;;6143413;28;20505;-79
2021/03/12 04:29:40;;;;;;;8.18;2.38;;;6.80;85.70;;;;;;6141739;28;20126;-80
2021/03/12 04:32:42;;;;;;;3.95;1.83;;;6.80;85.70;;;;;;6150295;28;20071;-79
2021/03/12 04:35:44;;;;;;;5.93;1.58;;;6.80;85.90;;;;;;6149025;28;20138;-79
2021/03/12 04:38:46;;;;;;;6.72;2.65;;;6.70;85.90;;;;;;6143390;28;20051;-80
2021/03/12 04:41:48;;;;;;;6.57;1.75;;;6.60;85.30;;;;;;6141604;28;20094;-81
2021/03/12 04:44:50;;;;;;;8.25;3.35;;;6.60;86.20;;;;;;6141878;28;20059;-79
2021/03/12 04:47:55;;;;;;;5.97;1.70;;;6.60;86.20;;;;;;6138825;28;20048;-80
2021/03/12 04:50:57;;;;;;;5.15;1.67;;;6.60;86.50;;;;;;6138262;28;20099;-80
2021/03/12 04:53:59;;;;;;;6.57;1.58;;;6.50;85.80;;;;;;6146243;28;20044;-78
2021/03/12 04:57:00;;;;;;;2.67;1.58;;;6.50;85.50;;;;;;6143455;28;20055;-79
2021/03/12 05:00:05;;;;;;;9.95;2.70;;;6.40;85.40;;;;;;6135988;29;20079;-80
2021/03/12 05:03:06;;;;;;;6.38;1.63;;;6.30;85.60;;;;;;6133110;28;20051;-80
2021/03/12 05:06:09;;;;;;;5.68;1.80;;;6.30;86.10;;;;;;6133407;28;20043;-79
2021/03/12 05:09:11;;;;;;;4.50;1.83;;;6.50;87.20;;;;;;6135391;28;20048;-79
2021/03/12 05:12:14;;;;;;;3.72;1.17;;;6.50;86.90;;;;;;6144641;29;20473;-79
2021/03/12 05:15:16;;;;;;;6.47;2.33;;;6.60;86.70;;;;;;6148501;28;20134;-80
2021/03/12 05:18:18;;;;;;;7.47;1.67;;;6.60;86.80;;;;;;6145098;28;20490;-79
2021/03/12 05:21:19;;;;;;;4.65;1.63;;;6.70;87.60;;;;;;6127549;28;20179;-77
2021/03/12 05:24:21;;;;;;;5.78;1.25;;;6.60;87.20;;;;;;6132997;29;20044;-77
2021/03/12 05:27:22;;;;;;;7.10;1.42;;;6.50;87.50;;;;;;6140653;28;20131;-78
2021/03/12 05:30:26;;;;;;;8.45;2.15;;;6.30;88.50;;;;;;6140745;28;20043;-80
2021/03/12 05:33:27;;;;;;;1.90;1.52;;;6.20;90.00;;;;;;6139250;28;20588;-78
2021/03/12 05:36:28;;;;;;;6.82;2.20;;;6.20;90.30;;;;;;6152725;28;20044;-79
2021/03/12 05:39:30;;;;;;;13.27;2.08;;;6.30;90.40;;;;;;6146546;28;20079;-80
2021/03/12 05:42:32;;;;;;;6.22;1.95;;;6.30;90.50;;;;;;6143844;28;20515;-77
2021/03/12 05:45:34;;;;;;;3.85;1.30;;;6.30;90.40;;;;;;6143191;28;20473;-79
2021/03/12 05:48:36;;;;;;;7.13;1.67;;;6.20;90.80;;;;;;6148444;29;20101;-78
2021/03/12 05:51:37;;;;;;;2.30;1.38;;;6.20;90.90;;;;;;6137473;28;20043;-78
2021/03/12 05:54:39;;;;;;;3.88;1.80;;;6.20;91.10;;;;;;6149468;28;20119;-78
2021/03/12 05:57:40;;;;;;;3.40;1.77;;;6.10;91.40;;;;;;6139991;28;20540;-78
2021/03/12 06:00:42;;;;;;;6.93;2.20;;;6.20;91.40;;;;;;6139347;29;20047;-78
2021/03/12 06:03:44;;;;;;;4.82;1.95;;;6.20;91.00;;;;;;6136152;28;20041;-78
2021/03/12 06:06:46;;;;;;;3.08;1.17;;;6.20;90.50;;;;;;6139428;28;20047;-76
2021/03/12 06:09:47;;;;;;;5.43;1.40;;;6.30;90.00;;;;;;6133894;28;20070;-78
2021/03/12 06:12:50;;;;;;;6.22;1.35;;;6.40;89.80;;;;;;6147517;28;20135;-78
2021/03/12 06:15:53;;;;;;;6.30;1.60;;;6.50;90.20;;;;;;6148898;28;20429;-78
2021/03/12 06:19:10;;;;;;;6.28;1.50;;;6.60;91.60;;;;;;6135066;28;20220;-76
2021/03/12 06:22:12;;;;;;;7.25;2.15;;;6.50;92.30;;;;;;6135379;28;20462;-77
2021/03/12 06:25:16;;;;;;;3.78;1.30;;;6.30;93.30;;;;;;6139579;28;20047;-78
2021/03/12 06:28:19;;;;;;;2.15;1.33;;;6.20;94.20;;;;;;6146378;29;20130;-80
2021/03/12 06:31:30;;;;;;;8.52;2.15;;;6.00;95.50;;;;;;6138397;28;20052;-80
2021/03/12 06:34:32;;;;;;;3.92;1.45;;;5.90;96.70;;;;;;6136644;28;20051;-80
2021/03/12 06:37:35;;;;;;;11.32;2.55;;;5.80;97.70;;;;;;6138717;28;20051;-80
2021/03/12 06:40:38;;;;;;;2.45;2.03;;;5.70;98.50;;;;;;6136358;29;20056;-81
2021/03/12 06:43:39;;;;;;;6.22;2.03;;;5.80;99.00;;;;;;6143718;28;20043;-78
2021/03/12 06:46:45;;;;;;;6.15;1.45;;;5.80;98.80;;;;;;6144744;28;20082;-80
2021/03/12 06:49:54;;;;;;;2.92;1.77;;;5.80;99.20;;;;;;6135813;28;20054;-80
2021/03/12 06:52:55;;;;;;;7.13;1.98;;;5.80;99.40;;;;;;6132804;28;20083;-80
2021/03/12 06:55:59;;;;;;;8.02;1.95;;;5.90;99.70;;;;;;6148431;28;20055;-81
2021/03/12 06:59:03;;;;;;;2.30;1.45;;;6.00;99.40;;;;;;6138805;28;20091;-80
2021/03/12 07:02:06;;;;;;;4.57;1.70;;;6.10;99.20;;;;;;6140934;28;20102;-77
2021/03/12 07:05:08;;;;;;;7.53;2.25;;;6.10;98.80;;;;;;6144330;28;20051;-81
2021/03/12 07:08:27;;;;;;;3.17;1.70;;;6.20;98.60;;;;;;6156671;28;20114;-80
2021/03/12 07:11:29;;;;;;;9.95;1.70;;;6.30;98.60;;;;;;6163631;28;20126;-80
2021/03/12 07:14:31;;;;;;;2.47;1.58;;;6.40;97.90;;;;;;6167347;28;20133;-77
2021/03/12 07:17:33;;;;;;;3.80;2.38;;;6.50;97.60;;;;;;6163734;28;20094;-80
2021/03/12 07:20:35;;;;;;;4.75;1.42;;;6.70;96.40;;;;;;6135183;29;20051;-81
2021/03/12 07:23:40;;;;;;;4.63;2.08;;;6.80;96.10;;;;;;6144477;28;20079;-79
2021/03/12 07:26:45;;;;;;;8.90;3.60;;;6.70;94.20;;;;;;6141017;28;20129;-80
2021/03/12 07:29:47;;;;;;;3.83;1.13;;;6.70;92.80;;;;;;6133983;28;20123;-78
2021/03/12 07:32:54;;;;;;;5.32;1.75;;;6.70;93.50;;;;;;6159717;28;20131;-81
2021/03/12 07:35:59;;;;;;;1.88;1.27;;;6.80;93.90;;;;;;6172582;28;20459;-78
2021/03/12 07:39:03;;;;;;;3.80;1.00;;;7.20;94.10;;;;;;6150883;28;20069;-81
2021/03/12 07:42:07;;;;;;;3.05;1.30;;;7.30;92.70;;;;;;6146868;28;20047;-80
2021/03/12 07:45:12;;;;;;;5.47;1.33;;;7.50;92.10;;;;;;6132098;28;20051;-80
2021/03/12 07:48:15;;;;;;;6.68;2.45;;;7.50;91.40;;;;;;6145221;29;20085;-80
2021/03/12 07:51:16;;;;;;;3.88;1.63;;;7.60;91.90;;;;;;6144618;28;20047;-78
2021/03/12 07:54:39;;;;;;;2.47;1.38;;;7.60;91.40;;;;;;6139810;28;20517;-80
2021/03/12 07:57:41;;;;;;;3.63;1.40;;;7.60;91.10;;;;;;6167786;28;20572;-79
2021/03/12 08:01:06;;;;;;;4.82;1.75;;;7.40;90.70;;;;;;6175872;28;20108;-81
2021/03/12 08:04:27;;;;;;;4.38;1.33;;;7.30;92.00;;;;;;6139805;29;20517;-80
2021/03/12 08:07:35;;;;;;;2.80;1.45;;;7.30;92.80;;;;;;6139692;28;20052;-79
2021/03/12 08:10:36;;;;;;;4.10;2.65;;;7.60;93.30;;;;;;6136529;28;20119;-79
2021/03/12 08:13:37;;;;;;;7.82;1.80;;;7.70;93.00;;;;;;6149192;28;20074;-79
2021/03/12 08:17:18;;;;;;;4.65;1.40;;;7.90;92.00;;;;;;6168174;28;20531;-78
2021/03/12 08:20:30;;;;;;;8.32;1.48;;;8.10;91.20;;;;;;6169191;28;20062;-79
2021/03/12 08:23:34;;;;;;;4.25;1.67;;;8.30;90.80;;;;;;6162557;28;20126;-79
2021/03/12 08:26:49;;;;;;;6.32;1.30;;;8.50;90.10;;;;;;6158745;28;20130;-78
2021/03/12 08:29:50;;;;;;;4.88;1.05;;;8.60;89.40;;;;;;6164224;28;20039;-78
2021/03/12 08:32:53;;;;;;;6.63;1.45;;;8.60;90.00;;;;;;6164299;28;20125;-78
2021/03/12 08:35:56;;;;;;;6.85;1.75;;;8.60;89.80;;;;;;6159050;28;20398;-79
2021/03/12 08:38:58;;;;;;;3.83;1.30;;;8.80;87.40;;;;;;6171600;28;20069;-79
2021/03/12 08:41:59;;;;;;;5.10;1.27;;;8.90;85.50;;;;;;6163173;28;20188;-79
2021/03/12 08:45:00;;;;;;;8.40;2.55;;;9.00;83.40;;;;;;6165343;28;20118;-79
2021/03/12 08:48:07;;;;;;;4.80;1.20;;;9.20;82.80;;;;;;6152926;28;20086;-76
2021/03/12 08:51:12;;;;;;;5.53;1.38;;;9.70;79.50;;;;;;6173612;28;20134;-79
2021/03/12 08:54:14;;;;;;;2.92;1.70;;;10.00;77.00;;;;;;6157925;28;20125;-81
2021/03/12 08:57:21;;;;;;;5.05;1.48;;;10.00;76.60;;;;;;6183092;23;20111;-79
2021/03/12 09:00:27;;;;;;;5.93;1.52;;;10.00;75.80;;;;;;6169989;28;20190;-79
2021/03/12 09:03:31;;;;;;;2.10;1.08;;;10.20;74.90;;;;;;6176011;28;20085;-79
2021/03/12 09:06:35;;;;;;;2.42;1.20;;;10.40;75.30;;;;;;6169881;28;20511;-76
2021/03/12 09:09:37;;;;;;;5.95;1.30;;;10.70;73.60;;;;;;6174885;28;20051;-79
2021/03/12 09:12:39;;;;;;;4.57;1.13;;;10.90;73.40;;;;;;6177005;28;20046;-78
2021/03/12 09:15:41;;;;;;;6.90;1.52;;;11.00;71.50;;;;;;6170099;28;20047;-79
2021/03/12 09:18:43;;;;;;;3.13;1.45;;;11.00;72.30;;;;;;6174264;28;20126;-78
2021/03/12 09:21:45;;;;;;;10.05;1.65;;;11.00;71.30;;;;;;6176567;28;20074;-77
2021/03/12 09:24:52;;;;;;;1.95;1.05;;;11.10;68.60;;;;;;6171644;28;20050;-79
2021/03/12 09:28:01;;;;;;;11.25;1.63;;;11.20;69.70;;;;;;6153509;28;20133;-79
2021/03/12 09:31:05;;;;;;;5.15;1.40;;;11.50;69.20;;;;;;6148498;29;20123;-79
2021/03/12 09:34:12;;;;;;;12.52;3.60;;;11.40;68.60;;;;;;6147513;28;20537;-79
2021/03/12 09:37:14;;;;;;;4.67;1.57;;;11.20;67.60;;;;;;6143704;28;20525;-78
2021/03/12 09:40:35;;;;;;;3.97;1.60;;;11.10;68.10;;;;;;6142402;29;20665;-79
2021/03/12 09:43:37;;;;;;;1.35;0.98;;;11.20;68.30;;;;;;6159844;28;20082;-79
2021/03/12 09:46:40;;;;;;;6.75;2.17;;;11.40;68.40;;;;;;6156379;28;20059;-78
2021/03/12 09:49:43;;;;;;;5.25;2.10;;;11.80;65.30;;;;;;6156568;28;20047;-79
2021/03/12 09:52:45;;;;;;;13.50;1.88;;;12.10;64.90;;;;;;6201665;28;20066;-78
2021/03/12 09:55:46;;;;;;;8.63;1.98;;;12.50;65.20;;;;;;6205616;28;20051;-77
2021/03/12 09:58:48;;;;;;;3.88;1.63;;;12.40;63.20;;;;;;6202499;28;20032;-78
2021/03/12 10:01:50;;;;;;;7.63;1.70;;;12.10;65.00;;;;;;6196579;28;20035;-78
2021/03/12 10:04:58;;;;;;;9.40;1.95;;;11.90;66.30;;;;;;6202021;28;20027;-79
2021/03/12 10:08:05;;;;;;;9.43;1.45;;;11.60;67.10;;;;;;6199787;28;20058;-79
2021/03/12 10:11:06;;;;;;;6.90;1.97;;;11.20;67.90;;;;;;6180348;28;20433;-80
2021/03/12 10:14:44;;;;;;;5.90;2.00;;;10.90;68.10;;;;;;6180922;28;20078;-78
2021/03/12 10:17:46;;;;;;;6.85;1.70;;;10.70;70.00;;;;;;6169767;28;20082;-78
2021/03/12 10:20:49;;;;;;;1.73;1.10;;;10.60;69.30;;;;;;6177286;28;20114;-81
2021/03/12 10:23:50;;;;;;;5.65;1.48;;;10.40;67.60;;;;;;6166720;28;20051;-80
2021/03/12 10:26:52;;;;;;;2.58;1.23;;;10.30;68.10;;;;;;6172364;28;20082;-79
2021/03/12 10:29:53;;;;;;;4.18;1.60;;;10.30;68.30;;;;;;6173886;28;20062;-79
2021/03/12 10:32:57;;;;;;;3.10;1.70;;;10.60;69.00;;;;;;6164262;28;20081;-79
2021/03/12 10:36:02;;;;;;;5.10;1.63;;;11.00;64.40;;;;;;6168418;28;20137;-77
2021/03/12 10:39:04;;;;;;;6.10;2.67;;;11.50;63.60;;;;;;6154669;28;20493;-76
2021/03/12 10:42:05;;;;;;;2.88;1.50;;;12.10;62.50;;;;;;6148452;28;20050;-79
2021/03/12 10:45:09;;;;;;;5.70;2.13;;;12.90;61.50;;;;;;6149503;28;20484;-76
2021/03/12 10:48:10;;;;;;;3.38;1.17;;;13.10;57.30;;;;;;6152214;29;20058;-78
2021/03/12 10:51:15;;;;;;;3.85;1.45;;;13.10;56.90;;;;;;6153666;28;20049;-79
2021/03/12 10:54:16;;;;;;;5.13;2.22;;;13.40;56.80;;;;;;6153657;28;20130;-77
2021/03/12 10:57:18;;;;;;;4.25;1.17;;;13.50;56.60;;;;;;6175819;28;20137;-79
2021/03/12 11:00:21;;;;;;;2.67;1.38;;;;;;;;;;6170832;28;20053;-77
2021/03/12 11:03:23;;;;;;;5.05;1.98;;;;;;;;;;6160514;28;20039;-79
2021/03/12 11:06:28;;;;;;;5.53;1.88;;;13.00;55.80;;;;;;6151652;28;20126;-78
2021/03/12 11:09:30;;;;;;;5.93;1.42;;;12.60;55.70;;;;;;6150538;28;20046;-77
2021/03/12 11:12:42;;;;;;;6.90;1.35;;;12.40;56.50;;;;;;6176776;28;20141;-79
2021/03/12 11:15:44;;;;;;;9.13;2.65;;;12.20;57.40;;;;;;6150902;28;20074;-79
2021/03/12 11:18:45;;;;;;;3.28;1.60;;;12.20;57.50;;;;;;6152375;28;20079;-78
2021/03/12 11:21:47;;;;;;;4.00;1.55;;;12.20;58.20;;;;;;6149367;28;20556;-79
2021/03/12 11:24:49;;;;;;;3.90;1.50;;;12.30;58.50;;;;;;6154044;29;20501;-78
2021/03/12 11:27:50;;;;;;;9.35;1.90;;;12.30;57.30;;;;;;6172089;28;20062;-78
2021/03/12 11:30:52;;;;;;;8.13;1.55;;;12.30;56.50;;;;;;6173568;28;20063;-79
2021/03/12 11:33:53;;;;;;;8.07;2.92;;;12.20;55.30;;;;;;6173494;28;20053;-79
2021/03/12 11:36:56;;;;;;;3.20;1.27;;;12.10;55.40;;;;;;6172210;28;20134;-78
2021/03/12 11:39:59;;;;;;;5.35;1.60;;;12.20;65.70;;;;;;6145507;29;20039;-78
2021/03/12 11:43:02;;;;;;;5.22;1.48;;;11.80;54.90;;;;;;6149463;29;20048;-80
2021/03/12 11:46:03;;;;;;;7.70;1.80;;;11.70;55.90;;;;;;6148802;28;20047;-79
2021/03/12 11:49:05;;;;;;;8.50;1.60;;;11.60;55.00;;;;;;6152509;28;20051;-80
2021/03/12 11:52:07;;;;;;;9.30;1.35;;;11.60;55.30;;;;;;6149286;28;20059;-79
2021/03/12 11:55:09;;;;;;;6.13;1.40;;;11.50;54.60;;;;;;6148705;28;20123;-79
2021/03/12 11:58:11;;;;;;;11.25;3.20;;;11.50;55.30;;;;;;6149459;28;20046;-77
2021/03/12 12:01:12;;;;;;;5.38;1.60;;;11.30;55.60;;;;;;6159151;28;20075;-79
2021/03/12 12:04:13;;;;;;;6.25;1.77;;;11.20;56.10;;;;;;6172391;28;20142;-80
2021/03/12 12:07:17;;;;;;;7.40;2.35;;;11.20;57.50;;;;;;6175343;28;20085;-79
2021/03/12 12:10:20;;;;;;;5.65;1.83;;;11.20;57.30;;;;;;6172461;28;20051;-79
2021/03/12 12:13:21;;;;;;;9.52;1.65;;;11.10;56.80;;;;;;6170177;28;20054;-79
2021/03/12 12:16:22;;;;;;;8.75;1.95;;;11.30;57.60;;;;;;6150541;29;20160;-79
2021/03/12 12:19:24;;;;;;;11.10;2.35;;;11.40;56.60;;;;;;6152797;28;20036;-81
2021/03/12 12:22:26;;;;;;;10.35;2.10;;;11.60;55.70;;;;;;6157311;28;20073;-79
2021/03/12 12:25:28;;;;;;;9.35;2.28;;;11.80;55.40;;;;;;6149078;28;20051;-81
2021/03/12 12:28:30;;;;;;;7.75;2.15;;;11.90;54.00;;;;;;6149497;29;20054;-77
2021/03/12 12:31:32;;;;;;;6.65;3.03;;;12.00;53.80;;;;;;6149195;28;20069;-79
2021/03/12 12:34:33;;;;;;;5.07;1.38;;;12.10;54.10;;;;;;6147895;28;20050;-80
2021/03/12 12:37:36;;;;;;;7.70;3.10;;;12.20;52.00;;;;;;6147565;28;20135;-78
2021/03/12 12:40:37;;;;;;;10.95;2.75;;;12.00;51.30;;;;;;6148865;29;20497;-77
2021/03/12 12:43:39;;;;;;;4.43;1.33;;;12.00;52.90;;;;;;6149810;28;20067;-78
2021/03/12 12:46:41;;;;;;;6.35;1.88;;;11.90;52.80;;;;;;6157310;28;20043;-76
2021/03/12 12:49:42;;;;;;;5.80;2.22;;;11.90;52.70;;;;;;6165128;28;20117;-78
2021/03/12 12:52:45;;;;;;;6.40;1.50;;;12.20;52.00;;;;;;6175864;28;20138;-79
2021/03/12 12:55:46;;;;;;;5.50;1.90;;;12.50;51.80;;;;;;6155530;28;20047;-79
2021/03/12 12:58:47;;;;;;;3.97;1.60;;;12.90;50.30;;;;;;6159539;28;20117;-77
2021/03/12 13:01:49;;;;;;;11.45;5.07;;;13.10;50.40;;;;;;6177877;28;20156;-80
2021/03/12 13:04:50;;;;;;;7.70;3.38;;;13.20;49.00;;;;;;6174643;28;20139;-80
2021/03/12 13:07:52;;;;;;;2.45;1.63;;;13.20;49.60;;;;;;6141458;28;20051;-79
2021/03/12 13:10:54;;;;;;;8.55;2.38;;;13.30;49.90;;;;;;6151785;28;20047;-78
2021/03/12 13:13:55;;;;;;;4.90;1.60;;;13.30;49.30;;;;;;6146913;28;20079;-79
2021/03/12 13:16:57;;;;;;;6.20;1.92;;;13.30;49.20;;;;;;6149517;28;20047;-76
2021/03/12 13:19:58;;;;;;;6.57;2.42;;;13.60;49.20;;;;;;6149499;29;20047;-79
2021/03/12 13:23:01;;;;;;;4.00;2.17;;;13.80;48.30;;;;;;6149662;28;20086;-79
2021/03/12 13:26:02;;;;;;;9.05;4.20;;;13.90;48.90;;;;;;6155177;28;20074;-76
2021/03/12 13:29:04;;;;;;;10.75;2.95;;;13.80;49.00;;;;;;6177914;28;20046;-80
2021/03/12 13:32:05;;;;;;;6.85;2.63;;;13.50;48.90;;;;;;6159715;28;20191;-80
2021/03/12 13:35:08;;;;;;;11.85;4.00;;;13.20;50.30;;;;;;6171053;28;20109;-79
2021/03/12 13:38:10;;;;;;;5.35;3.25;;;12.80;51.60;;;;;;6157411;28;20074;-79
2021/03/12 13:41:12;;;;;;;16.55;7.47;;;12.50;52.80;;;;;;6142891;28;20051;-79
2021/03/12 13:44:15;;;;;;;5.55;2.42;;;12.50;53.40;;;;;;6147248;28;20062;-80
2021/03/12 13:47:16;;;;;;;7.93;1.58;;;12.70;54.00;;;;;;6167239;28;20134;-78
2021/03/12 13:50:18;;;;;;;8.18;3.88;;;12.80;53.50;;;;;;6159064;28;20088;-78
2021/03/12 13:53:20;;;;;;;5.43;3.05;;;12.90;53.60;;;;;;6142701;28;20063;-77
2021/03/12 13:56:21;;;;;;;8.23;4.93;;;13.10;54.60;;;;;;6150485;28;20498;-80
2021/03/12 13:59:23;;;;;;;7.28;1.77;;;13.30;53.40;;;;;;6155062;28;20051;-79
2021/03/12 14:02:24;;;;;;;6.90;3.15;;;13.60;52.40;;;;;;6153236;28;20051;-82
2021/03/12 14:05:25;;;;;;;6.97;2.65;;;13.80;51.70;;;;;;6150297;28;20126;-78
2021/03/12 14:08:28;;;;;;;18.75;16.83;;;14.10;51.00;;;;;;6146864;29;20115;-79
2021/03/12 14:11:29;;;;;;;7.57;3.47;;;14.20;49.80;;;;;;6167785;28;20074;-79
2021/03/12 14:14:30;;;;;;;3.63;2.13;;;14.20;49.80;;;;;;6178454;28;20137;-78
2021/03/12 14:17:32;;;;;;;4.20;1.88;;;14.50;49.70;;;;;;6164563;28;20067;-79
2021/03/12 14:20:33;;;;;;;5.93;3.05;;;14.60;46.20;;;;;;6150519;28;20047;-77
2021/03/12 14:23:35;;;;;;;5.32;2.35;;;14.60;46.90;;;;;;6149948;28;20082;-78
2021/03/12 14:26:37;;;;;;;6.80;1.67;;;14.50;46.50;;;;;;6164469;28;20039;-78
2021/03/12 14:29:38;;;;;;;5.43;1.55;;;14.60;46.00;;;;;;6179779;28;20050;-77
2021/03/12 14:32:39;;;;;;;5.90;2.13;;;14.60;46.00;;;;;;6174176;28;20062;-79
2021/03/12 14:35:40;;;;;;;24.10;16.00;;;14.30;47.40;;;;;;6155992;28;20409;-77
2021/03/12 14:38:43;;;;;;;6.43;2.15;;;14.10;47.80;;;;;;6146528;28;20469;-78
2021/03/12 14:41:44;;;;;;;6.68;2.05;;;14.00;47.90;;;;;;6150823;28;20051;-78
2021/03/12 14:44:46;;;;;;;5.72;1.40;;;13.80;47.30;;;;;;6149690;29;20126;-80
2021/03/12 14:47:47;;;;;;;3.80;2.13;;;13.80;48.20;;;;;;6168156;28;20050;-80
2021/03/12 14:50:49;;;;;;;5.75;1.77;;;13.50;49.40;;;;;;6181484;28;20523;-79
2021/03/12 14:53:52;;;;;;;3.15;1.17;;;13.20;50.10;;;;;;6165465;28;20044;-78
2021/03/12 14:56:54;;;;;;;5.28;1.33;;;12.90;51.50;;;;;;6156432;29;20114;-81
2021/03/12 14:59:55;;;;;;;4.38;1.02;;;12.80;51.80;;;;;;6155084;29;20039;-80
2021/03/12 15:02:56;;;;;;;3.00;1.52;;;12.50;52.40;;;;;;6156812;28;20052;-79
2021/03/12 15:05:58;;;;;;;3.20;1.05;;;12.40;53.50;;;;;;6159547;28;20051;-81
2021/03/12 15:09:01;;;;;;;2.63;1.00;;;12.40;54.30;;;;;;6159311;28;20058;-81
2021/03/12 15:12:02;;;;;;;2.55;1.52;;;12.30;53.70;;;;;;6162262;29;20098;-81
2021/03/12 15:15:05;;;;;;;3.90;2.15;;;12.20;54.20;;;;;;6157553;28;20051;-80
2021/03/12 15:18:07;;;;;;;9.77;1.48;;;12.20;54.40;;;;;;6159760;28;20135;-80
2021/03/12 15:21:08;;;;;;;6.60;1.65;;;12.20;54.60;;;;;;6162247;28;20547;-81
2021/03/12 15:24:11;;;;;;;4.05;1.23;;;12.20;55.20;;;;;;6158362;29;20075;-81
2021/03/12 15:27:12;;;;;;;7.95;1.75;;;12.10;55.90;;;;;;6157228;28;20070;-80
2021/03/12 15:30:14;;;;;;;10.68;1.88;;;12.00;55.80;;;;;;6159500;28;20288;-81
2021/03/12 15:33:16;;;;;;;5.40;0.95;;;11.90;55.20;;;;;;6164052;28;20070;-81
2021/03/12 15:36:19;;;;;;;10.50;2.05;;;11.80;56.20;;;;;;6184882;28;20062;-81
2021/03/12 15:39:22;;;;;;;6.07;2.13;;;11.80;55.70;;;;;;6177085;28;20047;-80
2021/03/12 15:42:24;;;;;;;4.00;1.10;;;11.80;56.40;;;;;;6175459;28;20413;-81
2021/03/12 15:45:25;;;;;;;5.57;1.35;;;11.80;55.50;;;;;;6155348;28;20480;-79
2021/03/12 15:48:27;;;;;;;4.35;1.50;;;11.70;55.50;;;;;;6152943;28;20043;-79
2021/03/12 15:51:28;;;;;;;5.18;1.15;;;11.50;55.90;;;;;;6175157;28;20054;-80
2021/03/12 15:54:30;;;;;;;7.68;2.03;;;11.50;55.80;;;;;;6182014;28;20418;-78
2021/03/12 15:57:32;;;;;;;5.57;1.55;;;11.40;55.40;;;;;;6183198;28;20070;-79
2021/03/12 16:00:33;;;;;;;8.05;1.58;;;11.40;55.70;;;;;;6183103;28;20106;-80
2021/03/12 16:03:35;;;;;;;5.43;1.30;;;11.30;56.30;;;;;;6182668;28;20046;-81
2021/03/12 16:06:38;;;;;;;4.75;1.30;;;11.30;57.10;;;;;;6177356;28;20079;-81
2021/03/12 16:09:40;;;;;;;8.27;1.73;;;11.20;57.10;;;;;;6181279;28;20043;-79
2021/03/12 16:12:41;;;;;;;9.07;1.70;;;11.30;57.20;;;;;;6179026;28;20165;-79
2021/03/12 16:15:43;;;;;;;5.68;1.35;;;11.20;57.10;;;;;;6184866;28;20043;-81